createdAt,value
2022-09-04T00:00:03.524Z,17.52
2022-09-04T00:02:44.111Z,17.45
2022-09-04T00:05:31.023Z,17.42
2022-09-04T00:08:22.422Z,17.36
2022-09-04T00:11:01.841Z,17.40
2022-09-04T00:13:33.949Z,17.40
2022-09-04T00:16:07.300Z,17.32
2022-09-04T00:18:44.251Z,17.26
2022-09-04T00:21:21.595Z,17.34
2022-09-04T00:23:58.042Z,17.25
2022-09-04T00:26:52.804Z,17.23
2022-09-04T00:29:39.130Z,17.21
2022-09-04T00:32:08.308Z,17.26
2022-09-04T00:34:52.567Z,17.14
2022-09-04T00:37:25.573Z,17.09
2022-09-04T00:39:56.906Z,17.11
2022-09-04T00:43:07.041Z,17.11
2022-09-04T00:46:02.502Z,17.05
2022-09-04T00:48:54.147Z,17.02
2022-09-04T00:51:51.608Z,16.97
2022-09-04T00:54:55.528Z,17.01
2022-09-04T00:57:51.281Z,16.99
2022-09-04T01:00:21.065Z,16.92
2022-09-04T01:02:50.079Z,16.88
2022-09-04T01:05:47.479Z,16.86
2022-09-04T01:08:40.675Z,16.86
2022-09-04T01:11:31.459Z,16.81
2022-09-04T01:14:10.751Z,16.85
2022-09-04T01:16:59.487Z,16.79
2022-09-04T01:20:03.784Z,16.74
2022-09-04T01:22:55.116Z,16.75
2022-09-04T01:25:52.108Z,16.69
2022-09-04T01:28:54.900Z,16.69
2022-09-04T01:31:31.861Z,16.70
2022-09-04T01:34:34.327Z,16.60
2022-09-04T01:37:25.054Z,16.56
2022-09-04T01:40:20.544Z,16.52
2022-09-04T01:43:15.275Z,16.47
2022-09-04T01:46:07.663Z,16.50
2022-09-04T01:48:57.283Z,16.43
2022-09-04T01:51:48.093Z,16.42
2022-09-04T01:54:35.259Z,16.40
2022-09-04T01:57:37.138Z,16.28
2022-09-04T02:00:08.259Z,16.34
2022-09-04T02:02:44.117Z,16.33
2022-09-04T02:05:21.719Z,16.29
2022-09-04T02:08:03.797Z,16.20
2022-09-04T02:10:48.713Z,16.25
2022-09-04T02:13:40.255Z,16.22
2022-09-04T02:16:36.386Z,16.09
2022-09-04T02:19:41.238Z,16.16
2022-09-04T02:22:31.500Z,16.14
2022-09-04T02:25:23.607Z,16.06
2022-09-04T02:27:59.706Z,16.06
2022-09-04T02:30:36.487Z,16.02
2022-09-04T02:33:18.272Z,15.99
2022-09-04T02:35:51.141Z,15.99
2022-09-04T02:38:37.039Z,16.05
2022-09-04T02:41:03.441Z,16.02
2022-09-04T02:43:54.601Z,15.95
2022-09-04T02:46:38.176Z,15.95
2022-09-04T02:49:24.428Z,15.93
2022-09-04T02:52:01.783Z,15.83
2022-09-04T02:55:05.816Z,15.78
2022-09-04T02:57:58.462Z,15.76
2022-09-04T03:00:40.720Z,15.70
2022-09-04T03:03:16.969Z,15.69
2022-09-04T03:06:01.585Z,15.65
2022-09-04T03:08:57.124Z,15.64
2022-09-04T03:11:32.005Z,15.62
2022-09-04T03:14:12.294Z,15.49
2022-09-04T03:16:47.969Z,15.55
2022-09-04T03:19:19.601Z,15.62
2022-09-04T03:21:50.666Z,15.56
2022-09-04T03:24:26.054Z,15.48
2022-09-04T03:27:01.384Z,15.49
2022-09-04T03:29:54.202Z,15.47
2022-09-04T03:32:40.038Z,15.51
2022-09-04T03:35:32.564Z,15.44
2022-09-04T03:38:11.696Z,15.39
2022-09-04T03:40:57.531Z,15.42
2022-09-04T03:43:54.443Z,15.39
2022-09-04T03:46:35.364Z,15.45
2022-09-04T03:49:53.106Z,15.45
2022-09-04T03:52:45.385Z,15.43
2022-09-04T03:55:47.962Z,15.45
2022-09-04T03:58:36.925Z,15.48
2022-09-04T04:01:24.869Z,15.43
2022-09-04T04:04:18.220Z,15.41
2022-09-04T04:07:10.983Z,15.41
2022-09-04T04:10:18.594Z,15.35
2022-09-04T04:13:12.302Z,15.29
2022-09-04T04:15:57.404Z,15.31
2022-09-04T04:18:44.920Z,15.34
2022-09-04T04:21:28.669Z,15.33
2022-09-04T04:24:03.018Z,15.26
2022-09-04T04:26:54.805Z,15.24
2022-09-04T04:29:55.976Z,15.20
2022-09-04T04:32:32.220Z,15.18
2022-09-04T04:35:04.512Z,15.21
2022-09-04T04:37:54.236Z,15.23
2022-09-04T04:40:30.198Z,15.21
2022-09-04T04:43:05.324Z,15.18
2022-09-04T04:45:56.819Z,15.21
2022-09-04T04:48:47.139Z,15.13
2022-09-04T04:51:40.695Z,15.16
2022-09-04T04:54:23.851Z,15.18
2022-09-04T04:56:53.874Z,15.14
2022-09-04T04:59:25.956Z,15.12
2022-09-04T05:02:07.683Z,15.12
2022-09-04T05:04:53.886Z,15.27
2022-09-04T05:07:40.400Z,15.35
2022-09-04T05:10:28.388Z,15.46
2022-09-04T05:13:05.876Z,15.58
2022-09-04T05:15:52.934Z,15.72
2022-09-04T05:18:39.338Z,15.84
2022-09-04T05:21:17.263Z,15.88
2022-09-04T05:24:19.174Z,16.01
2022-09-04T05:27:02.887Z,16.09
2022-09-04T05:29:44.723Z,16.23
2022-09-04T05:32:37.746Z,16.36
2022-09-04T05:35:24.731Z,16.33
2022-09-04T05:38:09.969Z,16.47
2022-09-04T05:41:06.106Z,16.57
2022-09-04T05:44:08.584Z,16.70
2022-09-04T05:46:56.820Z,16.70
2022-09-04T05:49:48.434Z,16.56
2022-09-04T05:52:39.542Z,16.43
2022-09-04T05:55:16.932Z,16.34
2022-09-04T05:58:03.876Z,16.31
2022-09-04T06:00:55.012Z,16.31
2022-09-04T06:03:30.995Z,16.16
2022-09-04T06:06:06.191Z,16.08
2022-09-04T06:08:56.408Z,16.23
2022-09-04T06:11:51.456Z,16.19
2022-09-04T06:14:30.197Z,16.19
2022-09-04T06:17:18.128Z,16.11
2022-09-04T06:20:10.236Z,16.48
2022-09-04T06:23:08.764Z,16.75
2022-09-04T06:26:02.945Z,16.88
2022-09-04T06:28:49.922Z,17.02
2022-09-04T06:31:19.352Z,17.27
2022-09-04T06:34:29.522Z,17.66
2022-09-04T06:37:11.628Z,17.74
2022-09-04T06:40:07.817Z,17.99
2022-09-04T06:42:51.546Z,17.99
2022-09-04T06:45:35.384Z,18.22
2022-09-04T06:48:24.170Z,18.12
2022-09-04T06:50:53.749Z,18.32
2022-09-04T06:53:52.396Z,18.28
2022-09-04T06:56:49.243Z,18.06
2022-09-04T06:59:34.007Z,17.83
2022-09-04T07:02:17.398Z,17.98
2022-09-04T07:05:06.143Z,17.97
2022-09-04T07:07:42.866Z,17.98
2022-09-04T07:10:16.428Z,17.98
2022-09-04T07:13:12.695Z,18.02
2022-09-04T07:15:50.187Z,18.07
2022-09-04T07:18:54.936Z,18.02
2022-09-04T07:21:42.869Z,18.18
2022-09-04T07:24:47.151Z,18.51
2022-09-04T07:27:45.012Z,18.78
2022-09-04T07:30:14.467Z,18.81
2022-09-04T07:32:50.374Z,19.03
2022-09-04T07:35:27.063Z,19.09
2022-09-04T07:38:07.106Z,19.25
2022-09-04T07:40:46.835Z,19.51
2022-09-04T07:43:40.655Z,19.76
2022-09-04T07:46:21.077Z,19.96
2022-09-04T07:48:56.434Z,19.99
2022-09-04T07:51:30.058Z,20.33
2022-09-04T07:54:22.627Z,20.40
2022-09-04T07:57:23.367Z,20.52
2022-09-04T07:59:59.712Z,20.57
2022-09-04T08:02:49.483Z,20.66
2022-09-04T08:05:21.919Z,20.84
2022-09-04T08:08:15.107Z,21.07
2022-09-04T08:11:03.012Z,21.20
2022-09-04T08:14:02.639Z,21.27
2022-09-04T08:16:48.859Z,21.18
2022-09-04T08:19:47.132Z,21.20
2022-09-04T08:22:28.260Z,21.13
2022-09-04T08:25:14.212Z,20.99
2022-09-04T08:28:17.551Z,21.00
2022-09-04T08:31:03.271Z,20.95
2022-09-04T08:33:49.342Z,20.80
2022-09-04T08:36:27.166Z,20.80
2022-09-04T08:39:02.416Z,20.85
2022-09-04T08:41:55.812Z,20.94
2022-09-04T08:44:41.046Z,21.23
2022-09-04T08:47:35.215Z,21.48
2022-09-04T08:50:23.952Z,21.16
2022-09-04T08:53:29.483Z,21.16
2022-09-04T08:56:15.916Z,21.15
2022-09-04T08:59:01.350Z,21.13
2022-09-04T09:01:51.171Z,21.29
2022-09-04T09:04:36.250Z,21.50
2022-09-04T09:07:32.106Z,21.58
2022-09-04T09:10:19.721Z,21.73
2022-09-04T09:13:08.987Z,21.60
2022-09-04T09:15:57.171Z,21.72
2022-09-04T09:18:35.835Z,22.02
2022-09-04T09:21:07.870Z,21.82
2022-09-04T09:24:16.682Z,22.30
2022-09-04T09:26:57.659Z,22.51
2022-09-04T09:29:40.006Z,22.62
2022-09-04T09:32:31.403Z,22.58
2022-09-04T09:35:41.888Z,22.70
2022-09-04T09:38:29.485Z,22.81
2022-09-04T09:41:08.406Z,23.00
2022-09-04T09:44:10.923Z,23.31
2022-09-04T09:47:51.620Z,23.47
2022-09-04T09:50:36.970Z,23.34
2022-09-04T09:53:32.004Z,23.47
2022-09-04T09:56:28.310Z,23.38
2022-09-04T09:59:43.178Z,23.57
2022-09-04T10:03:00.076Z,23.49
2022-09-04T10:06:02.000Z,23.67
2022-09-04T10:08:54.246Z,23.56
2022-09-04T10:11:55.634Z,23.72
2022-09-04T10:14:37.245Z,23.98
2022-09-04T10:17:22.892Z,24.21
2022-09-04T10:20:26.283Z,24.02
2022-09-04T10:23:26.687Z,24.10
2022-09-04T10:26:15.798Z,23.96
2022-09-04T10:28:48.137Z,23.80
2022-09-04T10:31:34.951Z,23.63
2022-09-04T10:34:14.543Z,23.56
2022-09-04T10:36:57.182Z,23.56
2022-09-04T10:40:18.012Z,23.77
2022-09-04T10:43:21.274Z,23.91
2022-09-04T10:46:01.137Z,23.82
2022-09-04T10:48:54.154Z,24.32
2022-09-04T10:51:40.854Z,24.19
2022-09-04T10:54:16.882Z,24.51
2022-09-04T10:56:56.277Z,24.71
2022-09-04T10:59:59.231Z,24.46
2022-09-04T11:02:57.072Z,24.54
2022-09-04T11:05:34.994Z,24.58
2022-09-04T11:08:21.826Z,24.59
2022-09-04T11:10:57.956Z,24.71
2022-09-04T11:13:51.520Z,24.80
2022-09-04T11:16:58.220Z,24.59
2022-09-04T11:20:16.160Z,24.68
2022-09-04T11:23:14.409Z,24.54
2022-09-04T11:26:26.401Z,24.73
2022-09-04T11:28:59.433Z,24.81
2022-09-04T11:31:40.068Z,24.88
2022-09-04T11:34:26.280Z,24.66
2022-09-04T11:37:22.967Z,24.67
2022-09-04T11:40:07.724Z,24.66
2022-09-04T11:42:50.247Z,24.62
2022-09-04T11:45:37.944Z,24.93
2022-09-04T11:48:26.369Z,24.94
2022-09-04T11:51:18.207Z,24.78
2022-09-04T11:54:14.427Z,24.76
2022-09-04T11:57:02.520Z,24.83
2022-09-04T11:59:42.981Z,24.77
2022-09-04T12:02:33.514Z,24.74
2022-09-04T12:05:42.842Z,24.82
2022-09-04T12:08:27.444Z,24.76
2022-09-04T12:11:10.730Z,24.71
2022-09-04T12:14:09.018Z,25.02
2022-09-04T12:17:03.419Z,25.11
2022-09-04T12:19:50.103Z,25.19
2022-09-04T12:22:45.120Z,25.48
2022-09-04T12:25:49.994Z,25.62
2022-09-04T12:29:07.136Z,25.25
2022-09-04T12:31:47.022Z,25.27
2022-09-04T12:34:45.815Z,25.45
2022-09-04T12:37:22.662Z,25.44
2022-09-04T12:40:09.131Z,25.73
2022-09-04T12:42:48.703Z,25.72
2022-09-04T12:45:56.172Z,25.88
2022-09-04T12:48:47.631Z,25.93
2022-09-04T12:51:26.506Z,25.95
2022-09-04T12:54:08.985Z,26.08
2022-09-04T12:56:50.249Z,25.92
2022-09-04T12:59:35.263Z,25.68
2022-09-04T13:02:19.025Z,26.28
2022-09-04T13:05:02.429Z,26.10
2022-09-04T13:07:40.991Z,26.64
2022-09-04T13:10:35.631Z,26.44
2022-09-04T13:13:25.156Z,26.18
2022-09-04T13:16:27.494Z,25.92
2022-09-04T13:19:12.708Z,26.03
2022-09-04T13:22:01.241Z,26.43
2022-09-04T13:24:51.311Z,26.03
2022-09-04T13:27:48.202Z,26.10
2022-09-04T13:30:23.966Z,26.06
2022-09-04T13:32:59.621Z,25.96
2022-09-04T13:35:59.010Z,26.04
2022-09-04T13:38:46.782Z,26.32
2022-09-04T13:41:50.783Z,26.47
2022-09-04T13:44:43.543Z,26.05
2022-09-04T13:47:15.783Z,26.16
2022-09-04T13:49:48.164Z,26.05
2022-09-04T13:52:29.227Z,25.94
2022-09-04T13:55:04.179Z,26.44
2022-09-04T13:57:40.744Z,26.57
2022-09-04T14:00:08.063Z,26.36
2022-09-04T14:02:36.746Z,26.29
2022-09-04T14:05:20.568Z,26.60
2022-09-04T14:07:50.499Z,26.19
2022-09-04T14:10:25.671Z,26.26
2022-09-04T14:13:16.319Z,26.37
2022-09-04T14:16:03.990Z,26.40
2022-09-04T14:18:45.900Z,26.18
2022-09-04T14:21:28.670Z,26.13
2022-09-04T14:24:13.859Z,26.28
2022-09-04T14:26:53.891Z,26.26
2022-09-04T14:29:48.310Z,25.96
2022-09-04T14:32:26.135Z,25.62
2022-09-04T14:35:12.671Z,25.66
2022-09-04T14:37:54.358Z,25.71
2022-09-04T14:40:25.655Z,25.67
2022-09-04T14:43:22.312Z,25.67
2022-09-04T14:46:02.524Z,25.32
2022-09-04T14:48:33.599Z,25.24
2022-09-04T14:51:14.594Z,25.48
2022-09-04T14:53:48.204Z,25.40
2022-09-04T14:56:43.782Z,25.61
2022-09-04T14:59:26.491Z,25.46
2022-09-04T15:02:08.957Z,25.64
2022-09-04T15:04:46.810Z,25.63
2022-09-04T15:07:38.785Z,25.84
2022-09-04T15:10:13.963Z,25.70
2022-09-04T15:13:11.484Z,25.61
2022-09-04T15:15:47.847Z,25.55
2022-09-04T15:18:31.656Z,25.42
2022-09-04T15:21:21.452Z,25.42
2022-09-04T15:24:27.014Z,25.37
2022-09-04T15:27:05.613Z,25.25
2022-09-04T15:29:58.595Z,25.13
2022-09-04T15:32:28.244Z,25.06
2022-09-04T15:35:21.614Z,25.15
2022-09-04T15:37:51.722Z,25.11
2022-09-04T15:40:28.425Z,25.10
2022-09-04T15:43:07.366Z,25.09
2022-09-04T15:45:43.378Z,24.93
2022-09-04T15:48:21.687Z,24.87
2022-09-04T15:51:01.972Z,24.72
2022-09-04T15:53:33.870Z,24.60
2022-09-04T15:56:15.581Z,24.65
2022-09-04T15:58:53.094Z,24.61
2022-09-04T16:01:26.972Z,24.68
2022-09-04T16:04:07.574Z,24.73
2022-09-04T16:06:45.055Z,24.72
2022-09-04T16:09:25.665Z,24.75
2022-09-04T16:12:14.628Z,24.61
2022-09-04T16:14:51.853Z,24.58
2022-09-04T16:17:30.731Z,24.36
2022-09-04T16:20:50.849Z,24.32
2022-09-04T16:23:26.458Z,24.44
2022-09-04T16:25:54.803Z,24.40
2022-09-04T16:28:31.450Z,24.31
2022-09-04T16:31:06.524Z,24.28
2022-09-04T16:33:53.227Z,24.35
2022-09-04T16:36:40.172Z,24.33
2022-09-04T16:39:14.181Z,24.26
2022-09-04T16:41:48.802Z,24.33
2022-09-04T16:44:25.652Z,24.25
2022-09-04T16:47:02.969Z,24.25
2022-09-04T16:49:54.468Z,24.26
2022-09-04T16:52:37.275Z,24.35
2022-09-04T16:55:24.728Z,24.34
2022-09-04T16:58:04.292Z,24.23
2022-09-04T17:00:49.195Z,24.09
2022-09-04T17:03:24.042Z,24.20
2022-09-04T17:06:02.950Z,24.13
2022-09-04T17:08:36.011Z,24.14
2022-09-04T17:11:16.598Z,24.03
2022-09-04T17:13:52.189Z,23.83
2022-09-04T17:16:24.050Z,23.79
2022-09-04T17:18:54.535Z,23.81
2022-09-04T17:27:58.830Z,23.69
2022-09-04T17:28:59.413Z,23.51
2022-09-04T17:29:09.938Z,23.35
2022-09-04T17:30:55.170Z,23.22
2022-09-04T17:37:46.176Z,23.14
2022-09-04T17:40:38.040Z,23.13
2022-09-04T17:40:52.438Z,23.17
2022-09-04T17:42:29.528Z,23.09
2022-09-04T17:45:22.139Z,22.95
2022-09-04T17:48:02.125Z,22.84
2022-09-04T17:50:28.902Z,22.73
2022-09-04T17:53:02.708Z,22.61
2022-09-04T17:55:34.946Z,22.52
2022-09-04T17:58:26.435Z,22.50
2022-09-04T18:01:14.501Z,22.43
2022-09-04T18:04:04.205Z,22.37
2022-09-04T18:06:51.091Z,22.31
2022-09-04T18:09:27.508Z,22.27
2022-09-04T18:12:10.163Z,22.17
2022-09-04T18:15:12.864Z,22.09
2022-09-04T18:17:54.160Z,21.99
2022-09-04T18:20:37.948Z,21.90
2022-09-04T18:23:26.430Z,21.77
2022-09-04T18:26:03.707Z,21.70
2022-09-04T18:28:52.521Z,21.60
2022-09-04T18:37:10.076Z,21.47
2022-09-04T18:37:15.825Z,21.41
2022-09-04T18:37:50.607Z,21.32
2022-09-04T18:40:43.134Z,21.24
2022-09-04T18:49:43.080Z,21.20
2022-09-04T18:50:38.909Z,21.08
2022-09-04T18:50:48.705Z,21.14
2022-09-04T18:51:58.122Z,20.92
2022-09-04T18:54:43.708Z,20.85
2022-09-04T18:57:40.367Z,20.79
2022-09-04T19:00:12.330Z,20.71
2022-09-04T19:02:53.540Z,20.69
2022-09-04T19:05:21.921Z,20.59
2022-09-04T19:07:56.017Z,20.51
2022-09-04T19:10:30.764Z,20.36
2022-09-04T19:13:03.306Z,20.29
2022-09-04T19:15:37.534Z,20.20
2022-09-04T19:18:22.217Z,20.12
2022-09-04T19:20:55.123Z,19.98
2022-09-04T19:23:46.270Z,19.92
2022-09-04T19:26:29.307Z,19.85
2022-09-04T19:29:13.101Z,19.80
2022-09-04T19:31:51.254Z,19.76
2022-09-04T19:34:30.919Z,19.76
2022-09-04T19:41:39.586Z,19.77
2022-09-04T19:46:07.511Z,19.70
2022-09-04T19:46:17.918Z,19.69
2022-09-04T19:46:29.373Z,19.56
2022-09-04T19:50:50.596Z,19.48
2022-09-04T19:53:29.789Z,19.54
2022-09-04T19:55:39.617Z,19.53
2022-09-04T19:58:09.737Z,19.52
2022-09-04T20:00:44.480Z,19.47
2022-09-04T20:03:38.542Z,19.47
2022-09-04T20:06:20.577Z,19.47
2022-09-04T20:09:03.769Z,19.42
2022-09-04T20:11:45.815Z,19.42
2022-09-04T20:14:34.687Z,19.39
2022-09-04T20:17:10.427Z,19.45
2022-09-04T20:19:44.869Z,19.45
2022-09-04T20:22:15.826Z,19.41
2022-09-04T20:25:01.718Z,19.35
2022-09-04T20:27:42.034Z,19.39
2022-09-04T20:30:12.149Z,19.48
2022-09-04T20:32:55.755Z,19.44
2022-09-04T20:35:32.922Z,19.42
2022-09-04T20:38:38.719Z,19.37
2022-09-04T20:41:16.531Z,19.40
2022-09-04T20:44:13.661Z,19.44
2022-09-04T20:51:22.723Z,19.39
2022-09-04T20:52:59.686Z,19.39
2022-09-04T20:53:20.639Z,19.38
2022-09-04T20:56:03.583Z,19.40
2022-09-04T21:03:07.907Z,19.38
2022-09-04T21:03:23.712Z,19.26
2022-09-04T21:05:37.156Z,19.27
2022-09-04T21:08:16.257Z,19.23
2022-09-04T21:11:04.220Z,19.16
2022-09-04T21:14:15.955Z,19.17
2022-09-04T21:17:34.138Z,19.21
2022-09-04T21:20:20.686Z,19.10
2022-09-04T21:23:15.680Z,19.13
2022-09-04T21:26:03.144Z,19.14
2022-09-04T21:29:06.184Z,19.10
2022-09-04T21:32:06.229Z,19.05
2022-09-04T21:34:54.522Z,19.05
2022-09-04T21:37:32.907Z,19.04
2022-09-04T21:40:50.099Z,19.02
2022-09-04T21:43:58.437Z,18.95
2022-09-04T21:46:46.994Z,19.01
2022-09-04T21:49:56.994Z,18.89
2022-09-04T21:52:56.097Z,18.89
2022-09-04T21:58:21.256Z,18.83
2022-09-04T22:02:44.602Z,18.81
2022-09-04T22:02:47.446Z,18.85
2022-09-04T22:05:19.344Z,18.84
2022-09-04T22:12:05.045Z,18.75
2022-09-04T22:13:40.087Z,18.70
2022-09-04T22:14:15.658Z,18.74
2022-09-04T22:17:03.172Z,18.73
2022-09-04T22:19:41.772Z,18.57
2022-09-04T22:22:48.761Z,18.52
2022-09-04T22:25:46.344Z,18.52
2022-09-04T22:28:44.650Z,18.52
2022-09-04T22:31:40.252Z,18.40
2022-09-04T22:34:37.047Z,18.35
2022-09-04T22:37:50.145Z,18.32
2022-09-04T22:40:33.154Z,18.32
2022-09-04T22:43:14.349Z,18.27
2022-09-04T22:45:53.370Z,18.17
2022-09-04T22:48:35.687Z,18.10
2022-09-04T22:51:27.275Z,18.17
2022-09-04T22:54:15.432Z,18.09
2022-09-04T22:57:04.987Z,18.11
2022-09-04T22:59:34.131Z,18.11
2022-09-04T23:02:39.866Z,18.17
2022-09-04T23:05:49.144Z,18.21
2022-09-04T23:13:49.762Z,18.26
2022-09-04T23:13:59.558Z,18.22
2022-09-04T23:14:33.769Z,18.27
2022-09-04T23:17:19.122Z,18.29
2022-09-04T23:26:32.225Z,18.34
2022-09-04T23:26:42.859Z,18.36
2022-09-04T23:26:58.472Z,18.33
2022-09-04T23:29:45.286Z,18.38
2022-09-04T23:32:27.538Z,18.42
2022-09-04T23:35:15.938Z,18.44
2022-09-04T23:38:01.295Z,18.45
2022-09-04T23:40:42.755Z,18.38
2022-09-04T23:43:36.934Z,18.44
2022-09-04T23:46:45.916Z,18.39
2022-09-04T23:49:38.987Z,18.38
2022-09-04T23:52:27.333Z,18.37
2022-09-04T23:55:15.571Z,18.38
2022-09-04T23:57:56.688Z,18.36
